Athol Springs, New York
Current Conditions -  °F | °C
As of 8:54 AM on Friday 24 Oct 2014 (Local Time) from KBUF Reporting Station
Few Clouds Few Clouds  
Wind Chill: 43°   Ceiling: Unl
Heat Index: 43°   Visibility: 10mi
Dew Point: 40°   Wind: 3mph
Humidity: 89%   Direction: 190°S
Pressure: 30.04"   Gusts: NA
Location:  42.77°N, 78.87°W
Report Text: KBUF 241254Z 19003KT 10SM FEW150 FEW240 FEW280 06/04 A3004 RMK AO2 SLP177 T00610044
Loading
Personal Weather Stations






























Interactive Weather Map
Tropical Storm Tracking
New forecast layout! Learn more

10-Day Weather Forecast

Advertisements
Track Severe Weather on mobile